sensor_id;sensor_type;location;lat;lon;timestamp;temperature;humidity
3638;DHT22;1835;50.068;8.154;2023-03-03T00:01:31;3.80;91.80
3638;DHT22;1835;50.068;8.154;2023-03-03T00:03:59;3.80;92.20
3638;DHT22;1835;50.068;8.154;2023-03-03T00:06:27;3.80;92.70
3638;DHT22;1835;50.068;8.154;2023-03-03T00:08:57;3.50;93.30
3638;DHT22;1835;50.068;8.154;2023-03-03T00:11:26;3.50;93.80
3638;DHT22;1835;50.068;8.154;2023-03-03T00:13:55;3.40;94.30
3638;DHT22;1835;50.068;8.154;2023-03-03T00:16:26;3.40;94.80
3638;DHT22;1835;50.068;8.154;2023-03-03T00:18:56;3.50;95.30
3638;DHT22;1835;50.068;8.154;2023-03-03T00:21:28;3.40;95.20
3638;DHT22;1835;50.068;8.154;2023-03-03T00:24:10;3.30;95.90
3638;DHT22;1835;50.068;8.154;2023-03-03T00:26:45;3.20;96.50
3638;DHT22;1835;50.068;8.154;2023-03-03T00:29:26;3.20;96.90
3638;DHT22;1835;50.068;8.154;2023-03-03T00:32:09;3.00;97.60
3638;DHT22;1835;50.068;8.154;2023-03-03T00:34:45;3.30;97.30
3638;DHT22;1835;50.068;8.154;2023-03-03T00:37:28;3.10;97.60
3638;DHT22;1835;50.068;8.154;2023-03-03T00:40:20;3.00;98.00
3638;DHT22;1835;50.068;8.154;2023-03-03T00:42:52;2.90;98.90
3638;DHT22;1835;50.068;8.154;2023-03-03T00:45:33;2.80;99.50
3638;DHT22;1835;50.068;8.154;2023-03-03T00:48:23;2.70;99.50
3638;DHT22;1835;50.068;8.154;2023-03-03T00:50:54;2.60;99.90
3638;DHT22;1835;50.068;8.154;2023-03-03T00:53:25;2.50;99.90
3638;DHT22;1835;50.068;8.154;2023-03-03T00:55:56;2.40;99.90
3638;DHT22;1835;50.068;8.154;2023-03-03T00:58:24;2.40;99.90
3638;DHT22;1835;50.068;8.154;2023-03-03T01:00:54;2.30;99.90
3638;DHT22;1835;50.068;8.154;2023-03-03T01:03:25;2.30;99.90
3638;DHT22;1835;50.068;8.154;2023-03-03T01:05:54;2.20;99.90
3638;DHT22;1835;50.068;8.154;2023-03-03T01:08:22;2.20;99.90
3638;DHT22;1835;50.068;8.154;2023-03-03T01:10:51;2.20;99.90
3638;DHT22;1835;50.068;8.154;2023-03-03T01:13:24;2.40;99.90
3638;DHT22;1835;50.068;8.154;2023-03-03T01:15:53;2.10;99.90
3638;DHT22;1835;50.068;8.154;2023-03-03T01:18:21;2.10;99.90
3638;DHT22;1835;50.068;8.154;2023-03-03T01:20:49;2.10;99.90
3638;DHT22;1835;50.068;8.154;2023-03-03T01:23:17;2.10;99.90
3638;DHT22;1835;50.068;8.154;2023-03-03T01:25:45;2.00;99.90
3638;DHT22;1835;50.068;8.154;2023-03-03T01:28:13;1.90;99.90
3638;DHT22;1835;50.068;8.154;2023-03-03T01:30:43;1.80;99.90
3638;DHT22;1835;50.068;8.154;2023-03-03T01:33:11;2.00;99.90
3638;DHT22;1835;50.068;8.154;2023-03-03T01:35:43;2.10;99.90
3638;DHT22;1835;50.068;8.154;2023-03-03T01:38:11;2.00;99.90
3638;DHT22;1835;50.068;8.154;2023-03-03T01:40:40;1.80;99.90
3638;DHT22;1835;50.068;8.154;2023-03-03T01:43:09;1.70;99.90
3638;DHT22;1835;50.068;8.154;2023-03-03T01:49:02;1.90;99.90
3638;DHT22;1835;50.068;8.154;2023-03-03T01:51:37;1.80;99.90
3638;DHT22;1835;50.068;8.154;2023-03-03T01:54:14;1.90;99.90
3638;DHT22;1835;50.068;8.154;2023-03-03T01:56:44;1.90;99.90
3638;DHT22;1835;50.068;8.154;2023-03-03T01:59:15;1.80;99.90
3638;DHT22;1835;50.068;8.154;2023-03-03T02:01:47;1.70;99.90
3638;DHT22;1835;50.068;8.154;2023-03-03T02:04:17;1.80;99.90
3638;DHT22;1835;50.068;8.154;2023-03-03T02:06:52;2.00;99.90
3638;DHT22;1835;50.068;8.154;2023-03-03T02:09:28;1.80;99.90
3638;DHT22;1835;50.068;8.154;2023-03-03T02:12:04;1.80;99.90
3638;DHT22;1835;50.068;8.154;2023-03-03T02:14:34;1.70;99.90
3638;DHT22;1835;50.068;8.154;2023-03-03T02:17:04;1.60;99.90
3638;DHT22;1835;50.068;8.154;2023-03-03T02:19:37;1.60;99.90
3638;DHT22;1835;50.068;8.154;2023-03-03T02:22:10;1.70;99.90
3638;DHT22;1835;50.068;8.154;2023-03-03T02:24:43;1.80;99.90
3638;DHT22;1835;50.068;8.154;2023-03-03T02:27:14;1.50;99.90
3638;DHT22;1835;50.068;8.154;2023-03-03T02:29:42;1.40;99.90
3638;DHT22;1835;50.068;8.154;2023-03-03T02:32:10;1.20;99.90
3638;DHT22;1835;50.068;8.154;2023-03-03T02:34:50;1.20;99.90
3638;DHT22;1835;50.068;8.154;2023-03-03T02:37:19;1.00;99.90
3638;DHT22;1835;50.068;8.154;2023-03-03T02:39:47;1.00;99.90
3638;DHT22;1835;50.068;8.154;2023-03-03T02:42:19;1.00;99.90
3638;DHT22;1835;50.068;8.154;2023-03-03T02:44:49;1.10;99.90
3638;DHT22;1835;50.068;8.154;2023-03-03T02:47:17;1.20;99.90
3638;DHT22;1835;50.068;8.154;2023-03-03T02:49:45;1.20;99.90
3638;DHT22;1835;50.068;8.154;2023-03-03T02:52:13;1.20;99.90
3638;DHT22;1835;50.068;8.154;2023-03-03T02:54:44;1.10;99.90
3638;DHT22;1835;50.068;8.154;2023-03-03T02:57:12;1.20;99.90
3638;DHT22;1835;50.068;8.154;2023-03-03T02:59:41;1.40;99.90
3638;DHT22;1835;50.068;8.154;2023-03-03T03:02:09;1.40;99.90
3638;DHT22;1835;50.068;8.154;2023-03-03T03:04:38;1.30;99.90
3638;DHT22;1835;50.068;8.154;2023-03-03T03:07:06;1.30;99.90
3638;DHT22;1835;50.068;8.154;2023-03-03T03:09:34;1.10;99.90
3638;DHT22;1835;50.068;8.154;2023-03-03T03:12:02;1.00;99.90
3638;DHT22;1835;50.068;8.154;2023-03-03T03:14:30;1.00;99.90
3638;DHT22;1835;50.068;8.154;2023-03-03T03:17:00;1.00;99.90
3638;DHT22;1835;50.068;8.154;2023-03-03T03:19:29;1.00;99.90
3638;DHT22;1835;50.068;8.154;2023-03-03T03:21:57;1.00;99.90
3638;DHT22;1835;50.068;8.154;2023-03-03T03:24:25;1.00;99.90
3638;DHT22;1835;50.068;8.154;2023-03-03T03:26:53;0.90;99.90
3638;DHT22;1835;50.068;8.154;2023-03-03T03:29:21;0.90;99.90
3638;DHT22;1835;50.068;8.154;2023-03-03T03:31:49;1.20;99.90
3638;DHT22;1835;50.068;8.154;2023-03-03T03:34:18;1.10;99.90
3638;DHT22;1835;50.068;8.154;2023-03-03T03:36:46;1.20;99.90
3638;DHT22;1835;50.068;8.154;2023-03-03T03:39:14;1.10;99.90
3638;DHT22;1835;50.068;8.154;2023-03-03T03:41:42;1.00;99.90
3638;DHT22;1835;50.068;8.154;2023-03-03T03:44:10;0.90;99.90
3638;DHT22;1835;50.068;8.154;2023-03-03T03:46:38;0.90;99.90
3638;DHT22;1835;50.068;8.154;2023-03-03T03:49:06;1.00;99.90
3638;DHT22;1835;50.068;8.154;2023-03-03T03:51:35;0.90;99.90
3638;DHT22;1835;50.068;8.154;2023-03-03T03:54:07;0.80;99.90
3638;DHT22;1835;50.068;8.154;2023-03-03T03:56:35;1.00;99.90
3638;DHT22;1835;50.068;8.154;2023-03-03T03:59:04;0.90;99.90
3638;DHT22;1835;50.068;8.154;2023-03-03T04:01:32;0.90;99.90
3638;DHT22;1835;50.068;8.154;2023-03-03T04:04:01;0.80;99.90
3638;DHT22;1835;50.068;8.154;2023-03-03T04:06:29;0.70;99.90
3638;DHT22;1835;50.068;8.154;2023-03-03T04:08:59;0.60;99.90
3638;DHT22;1835;50.068;8.154;2023-03-03T04:11:27;0.50;99.90
3638;DHT22;1835;50.068;8.154;2023-03-03T04:13:55;0.50;99.90
3638;DHT22;1835;50.068;8.154;2023-03-03T04:16:23;0.50;99.90
3638;DHT22;1835;50.068;8.154;2023-03-03T04:18:51;0.40;99.90
3638;DHT22;1835;50.068;8.154;2023-03-03T04:21:19;0.60;99.90
3638;DHT22;1835;50.068;8.154;2023-03-03T04:23:47;0.50;99.90
3638;DHT22;1835;50.068;8.154;2023-03-03T04:26:16;0.50;99.90
3638;DHT22;1835;50.068;8.154;2023-03-03T04:28:44;0.40;99.90
3638;DHT22;1835;50.068;8.154;2023-03-03T04:31:13;0.40;99.90
3638;DHT22;1835;50.068;8.154;2023-03-03T04:33:41;0.40;99.90
3638;DHT22;1835;50.068;8.154;2023-03-03T04:36:09;0.30;99.90
3638;DHT22;1835;50.068;8.154;2023-03-03T04:38:37;0.30;99.90
3638;DHT22;1835;50.068;8.154;2023-03-03T04:41:05;0.50;99.90
3638;DHT22;1835;50.068;8.154;2023-03-03T04:43:35;0.40;99.90
3638;DHT22;1835;50.068;8.154;2023-03-03T04:46:05;0.50;99.90
3638;DHT22;1835;50.068;8.154;2023-03-03T04:48:36;0.50;99.90
3638;DHT22;1835;50.068;8.154;2023-03-03T04:51:05;0.40;99.90
3638;DHT22;1835;50.068;8.154;2023-03-03T04:53:33;0.50;99.90
3638;DHT22;1835;50.068;8.154;2023-03-03T04:56:02;0.70;99.90
3638;DHT22;1835;50.068;8.154;2023-03-03T04:58:30;0.60;99.90
3638;DHT22;1835;50.068;8.154;2023-03-03T05:00:59;0.50;99.90
3638;DHT22;1835;50.068;8.154;2023-03-03T05:03:27;0.50;99.90
3638;DHT22;1835;50.068;8.154;2023-03-03T05:05:56;0.50;99.90
3638;DHT22;1835;50.068;8.154;2023-03-03T05:08:24;0.50;99.90
3638;DHT22;1835;50.068;8.154;2023-03-03T05:10:52;0.60;99.90
3638;DHT22;1835;50.068;8.154;2023-03-03T05:13:21;0.60;99.90
3638;DHT22;1835;50.068;8.154;2023-03-03T05:15:49;0.60;99.90
3638;DHT22;1835;50.068;8.154;2023-03-03T05:18:20;0.50;99.90
3638;DHT22;1835;50.068;8.154;2023-03-03T05:20:49;0.50;99.90
3638;DHT22;1835;50.068;8.154;2023-03-03T05:23:18;0.40;99.90
3638;DHT22;1835;50.068;8.154;2023-03-03T05:25:47;0.40;99.90
3638;DHT22;1835;50.068;8.154;2023-03-03T05:28:16;0.30;99.90
3638;DHT22;1835;50.068;8.154;2023-03-03T05:30:45;0.20;99.90
3638;DHT22;1835;50.068;8.154;2023-03-03T05:33:15;0.20;99.90
3638;DHT22;1835;50.068;8.154;2023-03-03T05:35:45;0.20;99.90
3638;DHT22;1835;50.068;8.154;2023-03-03T05:38:13;0.40;99.90
3638;DHT22;1835;50.068;8.154;2023-03-03T05:40:41;0.40;99.90
3638;DHT22;1835;50.068;8.154;2023-03-03T05:43:09;0.50;99.90
3638;DHT22;1835;50.068;8.154;2023-03-03T05:45:37;0.50;99.90
3638;DHT22;1835;50.068;8.154;2023-03-03T05:48:05;0.50;99.90
3638;DHT22;1835;50.068;8.154;2023-03-03T05:50:36;0.50;99.90
3638;DHT22;1835;50.068;8.154;2023-03-03T05:53:06;0.30;99.90
3638;DHT22;1835;50.068;8.154;2023-03-03T05:55:34;0.20;99.90
3638;DHT22;1835;50.068;8.154;2023-03-03T05:58:02;0.40;99.90
3638;DHT22;1835;50.068;8.154;2023-03-03T06:00:30;0.40;99.90
3638;DHT22;1835;50.068;8.154;2023-03-03T06:02:58;0.30;99.90
3638;DHT22;1835;50.068;8.154;2023-03-03T06:05:26;0.30;99.90
3638;DHT22;1835;50.068;8.154;2023-03-03T06:07:54;0.40;99.90
3638;DHT22;1835;50.068;8.154;2023-03-03T06:10:23;0.40;99.90
3638;DHT22;1835;50.068;8.154;2023-03-03T06:12:51;0.40;99.90
3638;DHT22;1835;50.068;8.154;2023-03-03T06:15:20;0.30;99.90
3638;DHT22;1835;50.068;8.154;2023-03-03T06:17:49;0.20;99.90
3638;DHT22;1835;50.068;8.154;2023-03-03T06:20:17;0.10;99.90
3638;DHT22;1835;50.068;8.154;2023-03-03T06:22:45;0.20;99.90
3638;DHT22;1835;50.068;8.154;2023-03-03T06:25:13;0.10;99.90
3638;DHT22;1835;50.068;8.154;2023-03-03T06:27:43;0.30;99.90
3638;DHT22;1835;50.068;8.154;2023-03-03T06:30:11;0.30;99.90
3638;DHT22;1835;50.068;8.154;2023-03-03T06:32:40;0.40;99.90
3638;DHT22;1835;50.068;8.154;2023-03-03T06:35:08;0.40;99.90
3638;DHT22;1835;50.068;8.154;2023-03-03T06:37:36;0.40;99.90
3638;DHT22;1835;50.068;8.154;2023-03-03T06:40:06;0.40;99.90
3638;DHT22;1835;50.068;8.154;2023-03-03T06:42:35;0.40;99.90
3638;DHT22;1835;50.068;8.154;2023-03-03T06:45:05;0.50;99.90
3638;DHT22;1835;50.068;8.154;2023-03-03T06:47:34;0.50;99.90
3638;DHT22;1835;50.068;8.154;2023-03-03T06:50:02;0.60;99.90
3638;DHT22;1835;50.068;8.154;2023-03-03T06:52:30;0.60;99.90
3638;DHT22;1835;50.068;8.154;2023-03-03T06:55:00;0.50;99.90
3638;DHT22;1835;50.068;8.154;2023-03-03T06:57:31;0.50;99.90
3638;DHT22;1835;50.068;8.154;2023-03-03T07:00:17;0.50;99.90
3638;DHT22;1835;50.068;8.154;2023-03-03T07:02:47;0.70;99.90
3638;DHT22;1835;50.068;8.154;2023-03-03T07:05:23;0.70;99.90
3638;DHT22;1835;50.068;8.154;2023-03-03T07:07:57;0.70;99.90
3638;DHT22;1835;50.068;8.154;2023-03-03T07:10:27;0.70;99.90
3638;DHT22;1835;50.068;8.154;2023-03-03T07:13:01;0.80;99.90
3638;DHT22;1835;50.068;8.154;2023-03-03T07:15:42;0.90;99.90
3638;DHT22;1835;50.068;8.154;2023-03-03T07:18:22;1.00;99.90
3638;DHT22;1835;50.068;8.154;2023-03-03T07:20:55;1.20;99.90
3638;DHT22;1835;50.068;8.154;2023-03-03T07:23:25;1.20;99.90
3638;DHT22;1835;50.068;8.154;2023-03-03T07:25:54;1.30;99.90
3638;DHT22;1835;50.068;8.154;2023-03-03T07:28:25;1.50;99.90
3638;DHT22;1835;50.068;8.154;2023-03-03T07:30:56;1.90;99.90
3638;DHT22;1835;50.068;8.154;2023-03-03T07:33:26;2.50;99.90
3638;DHT22;1835;50.068;8.154;2023-03-03T07:35:57;3.10;99.90
3638;DHT22;1835;50.068;8.154;2023-03-03T07:38:30;3.90;99.90
3638;DHT22;1835;50.068;8.154;2023-03-03T07:41:02;4.90;99.90
3638;DHT22;1835;50.068;8.154;2023-03-03T07:43:36;5.60;99.90
3638;DHT22;1835;50.068;8.154;2023-03-03T07:46:25;5.60;99.90
3638;DHT22;1835;50.068;8.154;2023-03-03T07:48:56;6.30;99.90
3638;DHT22;1835;50.068;8.154;2023-03-03T07:51:27;7.20;99.90
3638;DHT22;1835;50.068;8.154;2023-03-03T07:54:14;7.30;99.90
3638;DHT22;1835;50.068;8.154;2023-03-03T07:56:45;7.30;99.60
3638;DHT22;1835;50.068;8.154;2023-03-03T07:59:19;8.30;98.70
3638;DHT22;1835;50.068;8.154;2023-03-03T08:01:53;9.00;97.30
3638;DHT22;1835;50.068;8.154;2023-03-03T08:04:28;9.60;95.40
3638;DHT22;1835;50.068;8.154;2023-03-03T08:07:01;9.60;94.80
3638;DHT22;1835;50.068;8.154;2023-03-03T08:09:37;9.40;94.80
3638;DHT22;1835;50.068;8.154;2023-03-03T08:12:28;9.40;94.80
3638;DHT22;1835;50.068;8.154;2023-03-03T08:15:11;9.40;94.50
3638;DHT22;1835;50.068;8.154;2023-03-03T08:17:45;9.70;94.20
3638;DHT22;1835;50.068;8.154;2023-03-03T08:20:42;9.70;93.70
3638;DHT22;1835;50.068;8.154;2023-03-03T08:23:13;9.90;93.60
3638;DHT22;1835;50.068;8.154;2023-03-03T08:25:43;9.90;92.70
3638;DHT22;1835;50.068;8.154;2023-03-03T08:28:11;10.30;92.10
3638;DHT22;1835;50.068;8.154;2023-03-03T08:30:41;10.40;91.30
3638;DHT22;1835;50.068;8.154;2023-03-03T08:33:11;10.50;90.70
3638;DHT22;1835;50.068;8.154;2023-03-03T08:35:40;10.50;90.60
3638;DHT22;1835;50.068;8.154;2023-03-03T08:38:09;10.50;90.50
3638;DHT22;1835;50.068;8.154;2023-03-03T08:40:37;11.00;90.30
3638;DHT22;1835;50.068;8.154;2023-03-03T08:43:06;11.10;89.50
3638;DHT22;1835;50.068;8.154;2023-03-03T08:45:34;10.80;90.90
3638;DHT22;1835;50.068;8.154;2023-03-03T08:48:03;11.60;87.30
3638;DHT22;1835;50.068;8.154;2023-03-03T08:50:33;12.00;87.80
3638;DHT22;1835;50.068;8.154;2023-03-03T08:53:01;12.40;83.30
3638;DHT22;1835;50.068;8.154;2023-03-03T08:55:30;11.80;83.10
3638;DHT22;1835;50.068;8.154;2023-03-03T08:58:00;11.70;83.80
3638;DHT22;1835;50.068;8.154;2023-03-03T09:00:28;12.20;83.60
3638;DHT22;1835;50.068;8.154;2023-03-03T09:02:56;12.20;82.10
3638;DHT22;1835;50.068;8.154;2023-03-03T09:05:25;12.80;80.20
3638;DHT22;1835;50.068;8.154;2023-03-03T09:07:54;12.10;80.40
3638;DHT22;1835;50.068;8.154;2023-03-03T09:10:24;12.10;81.90
3638;DHT22;1835;50.068;8.154;2023-03-03T09:12:57;12.50;81.50
3638;DHT22;1835;50.068;8.154;2023-03-03T09:15:30;13.30;78.00
3638;DHT22;1835;50.068;8.154;2023-03-03T09:18:09;13.30;76.90
3638;DHT22;1835;50.068;8.154;2023-03-03T09:20:43;12.80;77.50
3638;DHT22;1835;50.068;8.154;2023-03-03T09:23:34;12.70;77.50
3638;DHT22;1835;50.068;8.154;2023-03-03T09:26:28;11.60;73.50
3638;DHT22;1835;50.068;8.154;2023-03-03T09:29:06;12.30;78.90
3638;DHT22;1835;50.068;8.154;2023-03-03T09:31:48;12.40;76.50
3638;DHT22;1835;50.068;8.154;2023-03-03T09:34:22;12.80;76.30
3638;DHT22;1835;50.068;8.154;2023-03-03T09:36:52;13.30;74.40
3638;DHT22;1835;50.068;8.154;2023-03-03T09:39:24;12.90;75.90
3638;DHT22;1835;50.068;8.154;2023-03-03T09:42:11;13.50;74.10
3638;DHT22;1835;50.068;8.154;2023-03-03T09:45:12;13.60;72.90
3638;DHT22;1835;50.068;8.154;2023-03-03T09:51:23;13.20;76.90
3638;DHT22;1835;50.068;8.154;2023-03-03T09:54:18;12.30;75.00
3638;DHT22;1835;50.068;8.154;2023-03-03T09:57:00;12.30;76.00
3638;DHT22;1835;50.068;8.154;2023-03-03T10:02:49;13.10;73.70
3638;DHT22;1835;50.068;8.154;2023-03-03T10:05:45;13.50;73.10
3638;DHT22;1835;50.068;8.154;2023-03-03T10:08:25;13.80;71.10
3638;DHT22;1835;50.068;8.154;2023-03-03T10:11:09;13.50;72.90
3638;DHT22;1835;50.068;8.154;2023-03-03T10:13:52;13.30;70.40
3638;DHT22;1835;50.068;8.154;2023-03-03T10:16:47;13.90;72.40
3638;DHT22;1835;50.068;8.154;2023-03-03T10:19:33;13.60;69.90
3638;DHT22;1835;50.068;8.154;2023-03-03T10:22:15;14.10;69.00
3638;DHT22;1835;50.068;8.154;2023-03-03T10:24:58;14.70;65.70
3638;DHT22;1835;50.068;8.154;2023-03-03T10:27:46;13.80;64.40
3638;DHT22;1835;50.068;8.154;2023-03-03T10:30:30;13.90;67.50
3638;DHT22;1835;50.068;8.154;2023-03-03T10:33:25;13.40;67.00
3638;DHT22;1835;50.068;8.154;2023-03-03T10:36:09;14.00;68.00
3638;DHT22;1835;50.068;8.154;2023-03-03T10:38:55;13.20;67.30
3638;DHT22;1835;50.068;8.154;2023-03-03T10:41:56;13.50;66.60
3638;DHT22;1835;50.068;8.154;2023-03-03T10:44:51;14.10;65.90
3638;DHT22;1835;50.068;8.154;2023-03-03T10:47:45;14.00;65.60
3638;DHT22;1835;50.068;8.154;2023-03-03T10:50:25;14.40;65.70
3638;DHT22;1835;50.068;8.154;2023-03-03T10:53:05;14.40;65.20
3638;DHT22;1835;50.068;8.154;2023-03-03T10:55:49;14.80;63.90
3638;DHT22;1835;50.068;8.154;2023-03-03T11:01:39;15.30;60.80
3638;DHT22;1835;50.068;8.154;2023-03-03T11:04:28;14.20;62.10
3638;DHT22;1835;50.068;8.154;2023-03-03T11:07:10;15.30;60.60
3638;DHT22;1835;50.068;8.154;2023-03-03T11:09:50;14.80;60.80
3638;DHT22;1835;50.068;8.154;2023-03-03T11:12:28;14.90;60.20
3638;DHT22;1835;50.068;8.154;2023-03-03T11:15:24;15.10;60.50
3638;DHT22;1835;50.068;8.154;2023-03-03T11:18:18;15.60;59.40
3638;DHT22;1835;50.068;8.154;2023-03-03T11:20:55;15.20;60.20
3638;DHT22;1835;50.068;8.154;2023-03-03T11:26:42;15.00;59.50
3638;DHT22;1835;50.068;8.154;2023-03-03T11:29:27;14.80;59.10
3638;DHT22;1835;50.068;8.154;2023-03-03T11:32:08;14.40;61.10
3638;DHT22;1835;50.068;8.154;2023-03-03T11:35:06;14.80;59.10
3638;DHT22;1835;50.068;8.154;2023-03-03T11:37:47;15.30;58.70
3638;DHT22;1835;50.068;8.154;2023-03-03T11:40:25;15.30;58.70
3638;DHT22;1835;50.068;8.154;2023-03-03T11:43:00;14.80;57.80
3638;DHT22;1835;50.068;8.154;2023-03-03T11:45:36;14.60;58.40
3638;DHT22;1835;50.068;8.154;2023-03-03T11:48:13;13.90;59.60
3638;DHT22;1835;50.068;8.154;2023-03-03T11:50:52;14.10;60.60
3638;DHT22;1835;50.068;8.154;2023-03-03T11:53:31;13.70;61.40
3638;DHT22;1835;50.068;8.154;2023-03-03T11:56:16;14.30;60.20
3638;DHT22;1835;50.068;8.154;2023-03-03T11:58:53;14.40;58.60
3638;DHT22;1835;50.068;8.154;2023-03-03T12:01:32;14.20;60.40
3638;DHT22;1835;50.068;8.154;2023-03-03T12:04:07;14.10;59.90
3638;DHT22;1835;50.068;8.154;2023-03-03T12:06:51;14.20;60.70
3638;DHT22;1835;50.068;8.154;2023-03-03T12:09:49;14.30;59.80
3638;DHT22;1835;50.068;8.154;2023-03-03T12:12:23;13.50;59.70
3638;DHT22;1835;50.068;8.154;2023-03-03T12:15:03;13.90;61.10
3638;DHT22;1835;50.068;8.154;2023-03-03T12:17:54;13.50;59.70
3638;DHT22;1835;50.068;8.154;2023-03-03T12:20:37;12.80;61.50
3638;DHT22;1835;50.068;8.154;2023-03-03T12:23:34;12.70;62.00
3638;DHT22;1835;50.068;8.154;2023-03-03T12:26:12;11.90;65.20
3638;DHT22;1835;50.068;8.154;2023-03-03T12:28:49;11.70;66.60
3638;DHT22;1835;50.068;8.154;2023-03-03T12:31:43;11.40;66.10
3638;DHT22;1835;50.068;8.154;2023-03-03T12:34:20;11.10;68.30
3638;DHT22;1835;50.068;8.154;2023-03-03T12:37:17;10.70;72.00
3638;DHT22;1835;50.068;8.154;2023-03-03T12:39:59;10.70;72.40
3638;DHT22;1835;50.068;8.154;2023-03-03T12:42:40;10.60;71.80
3638;DHT22;1835;50.068;8.154;2023-03-03T12:45:27;10.70;70.70
3638;DHT22;1835;50.068;8.154;2023-03-03T12:48:08;10.70;72.00
3638;DHT22;1835;50.068;8.154;2023-03-03T12:50:50;11.10;71.20
3638;DHT22;1835;50.068;8.154;2023-03-03T12:53:33;11.30;69.80
3638;DHT22;1835;50.068;8.154;2023-03-03T12:56:10;11.90;71.20
3638;DHT22;1835;50.068;8.154;2023-03-03T12:58:48;12.30;68.60
3638;DHT22;1835;50.068;8.154;2023-03-03T13:01:31;12.50;68.70
3638;DHT22;1835;50.068;8.154;2023-03-03T13:04:09;12.70;68.60
3638;DHT22;1835;50.068;8.154;2023-03-03T13:06:43;12.70;66.80
3638;DHT22;1835;50.068;8.154;2023-03-03T13:09:25;12.90;65.60
3638;DHT22;1835;50.068;8.154;2023-03-03T13:12:20;12.90;66.50
3638;DHT22;1835;50.068;8.154;2023-03-03T13:14:59;12.60;66.00
3638;DHT22;1835;50.068;8.154;2023-03-03T13:17:37;12.10;66.70
3638;DHT22;1835;50.068;8.154;2023-03-03T13:20:21;11.40;69.20
3638;DHT22;1835;50.068;8.154;2023-03-03T13:22:58;11.30;68.40
3638;DHT22;1835;50.068;8.154;2023-03-03T13:25:39;11.30;70.40
3638;DHT22;1835;50.068;8.154;2023-03-03T13:28:20;10.70;70.90
3638;DHT22;1835;50.068;8.154;2023-03-03T13:30:57;10.80;72.60
3638;DHT22;1835;50.068;8.154;2023-03-03T13:33:33;10.50;71.80
3638;DHT22;1835;50.068;8.154;2023-03-03T13:36:05;10.60;73.00
3638;DHT22;1835;50.068;8.154;2023-03-03T13:38:39;10.70;71.40
3638;DHT22;1835;50.068;8.154;2023-03-03T13:41:16;10.50;72.10
3638;DHT22;1835;50.068;8.154;2023-03-03T13:43:53;10.50;71.30
3638;DHT22;1835;50.068;8.154;2023-03-03T13:46:33;10.50;71.90
3638;DHT22;1835;50.068;8.154;2023-03-03T13:49:17;10.20;72.00
3638;DHT22;1835;50.068;8.154;2023-03-03T13:52:05;10.10;73.10
3638;DHT22;1835;50.068;8.154;2023-03-03T13:54:46;10.20;73.90
3638;DHT22;1835;50.068;8.154;2023-03-03T13:57:37;10.50;72.30
3638;DHT22;1835;50.068;8.154;2023-03-03T14:00:25;10.70;71.10
3638;DHT22;1835;50.068;8.154;2023-03-03T14:03:21;10.50;71.30
3638;DHT22;1835;50.068;8.154;2023-03-03T14:06:00;10.30;72.30
3638;DHT22;1835;50.068;8.154;2023-03-03T14:08:51;10.40;71.90
3638;DHT22;1835;50.068;8.154;2023-03-03T14:11:28;10.20;71.20
3638;DHT22;1835;50.068;8.154;2023-03-03T14:14:08;10.20;71.10
3638;DHT22;1835;50.068;8.154;2023-03-03T14:16:50;10.20;70.40
3638;DHT22;1835;50.068;8.154;2023-03-03T14:19:24;10.30;69.80
3638;DHT22;1835;50.068;8.154;2023-03-03T14:22:05;10.50;69.40
3638;DHT22;1835;50.068;8.154;2023-03-03T14:24:59;10.60;69.60
3638;DHT22;1835;50.068;8.154;2023-03-03T14:27:34;10.10;70.50
3638;DHT22;1835;50.068;8.154;2023-03-03T14:30:26;10.20;69.80
3638;DHT22;1835;50.068;8.154;2023-03-03T14:33:03;10.30;68.80
3638;DHT22;1835;50.068;8.154;2023-03-03T14:35:42;10.10;69.40
3638;DHT22;1835;50.068;8.154;2023-03-03T14:38:13;10.00;69.70
3638;DHT22;1835;50.068;8.154;2023-03-03T14:40:44;10.10;69.00
3638;DHT22;1835;50.068;8.154;2023-03-03T14:43:22;10.00;69.00
3638;DHT22;1835;50.068;8.154;2023-03-03T14:45:52;10.00;70.10
3638;DHT22;1835;50.068;8.154;2023-03-03T14:48:23;9.90;72.10
3638;DHT22;1835;50.068;8.154;2023-03-03T14:50:56;10.10;67.70
3638;DHT22;1835;50.068;8.154;2023-03-03T14:53:33;9.90;68.40
3638;DHT22;1835;50.068;8.154;2023-03-03T14:56:15;10.20;67.90
3638;DHT22;1835;50.068;8.154;2023-03-03T14:58:48;9.70;68.50
3638;DHT22;1835;50.068;8.154;2023-03-03T15:01:22;9.80;69.40
3638;DHT22;1835;50.068;8.154;2023-03-03T15:04:02;9.70;68.90
3638;DHT22;1835;50.068;8.154;2023-03-03T15:06:40;9.70;69.30
3638;DHT22;1835;50.068;8.154;2023-03-03T15:09:30;9.90;67.80
3638;DHT22;1835;50.068;8.154;2023-03-03T15:12:16;9.80;67.80
3638;DHT22;1835;50.068;8.154;2023-03-03T15:14:46;10.00;65.90
3638;DHT22;1835;50.068;8.154;2023-03-03T15:17:24;10.00;64.40
3638;DHT22;1835;50.068;8.154;2023-03-03T15:20:03;9.70;66.30
3638;DHT22;1835;50.068;8.154;2023-03-03T15:22:46;9.70;66.20
3638;DHT22;1835;50.068;8.154;2023-03-03T15:25:22;9.70;65.70
3638;DHT22;1835;50.068;8.154;2023-03-03T15:28:21;9.90;66.80
3638;DHT22;1835;50.068;8.154;2023-03-03T15:31:00;9.60;66.40
3638;DHT22;1835;50.068;8.154;2023-03-03T15:33:34;9.70;67.20
3638;DHT22;1835;50.068;8.154;2023-03-03T15:36:15;9.80;65.80
3638;DHT22;1835;50.068;8.154;2023-03-03T15:38:57;9.80;65.30
3638;DHT22;1835;50.068;8.154;2023-03-03T15:41:37;9.80;65.20
3638;DHT22;1835;50.068;8.154;2023-03-03T15:44:15;9.80;65.60
3638;DHT22;1835;50.068;8.154;2023-03-03T15:46:57;9.70;65.00
3638;DHT22;1835;50.068;8.154;2023-03-03T15:49:49;9.30;65.90
3638;DHT22;1835;50.068;8.154;2023-03-03T15:52:35;9.40;66.30
3638;DHT22;1835;50.068;8.154;2023-03-03T15:58:21;9.00;66.70
3638;DHT22;1835;50.068;8.154;2023-03-03T16:01:06;8.90;67.70
3638;DHT22;1835;50.068;8.154;2023-03-03T16:03:42;9.10;68.10
3638;DHT22;1835;50.068;8.154;2023-03-03T16:06:17;9.40;67.30
3638;DHT22;1835;50.068;8.154;2023-03-03T16:08:55;9.40;67.70
3638;DHT22;1835;50.068;8.154;2023-03-03T16:11:31;9.10;69.80
3638;DHT22;1835;50.068;8.154;2023-03-03T16:14:14;9.10;69.10
3638;DHT22;1835;50.068;8.154;2023-03-03T16:17:03;9.20;70.90
3638;DHT22;1835;50.068;8.154;2023-03-03T16:19:46;9.10;70.10
3638;DHT22;1835;50.068;8.154;2023-03-03T16:22:30;8.90;72.10
3638;DHT22;1835;50.068;8.154;2023-03-03T16:25:20;8.90;71.80
3638;DHT22;1835;50.068;8.154;2023-03-03T16:28:01;8.90;73.00
3638;DHT22;1835;50.068;8.154;2023-03-03T16:30:36;8.80;74.20
3638;DHT22;1835;50.068;8.154;2023-03-03T16:33:15;8.60;75.00
3638;DHT22;1835;50.068;8.154;2023-03-03T16:35:53;8.50;76.80
3638;DHT22;1835;50.068;8.154;2023-03-03T16:38:31;8.10;78.00
3638;DHT22;1835;50.068;8.154;2023-03-03T16:41:08;8.10;79.10
3638;DHT22;1835;50.068;8.154;2023-03-03T16:43:57;8.00;79.30
3638;DHT22;1835;50.068;8.154;2023-03-03T16:46:32;8.00;79.50
3638;DHT22;1835;50.068;8.154;2023-03-03T16:49:07;7.60;80.90
3638;DHT22;1835;50.068;8.154;2023-03-03T16:51:45;7.40;81.40
3638;DHT22;1835;50.068;8.154;2023-03-03T16:54:21;7.60;82.30
3638;DHT22;1835;50.068;8.154;2023-03-03T16:57:07;7.20;83.50
3638;DHT22;1835;50.068;8.154;2023-03-03T16:59:51;7.20;84.80
3638;DHT22;1835;50.068;8.154;2023-03-03T17:02:40;7.30;84.10
3638;DHT22;1835;50.068;8.154;2023-03-03T17:05:26;7.30;85.60
3638;DHT22;1835;50.068;8.154;2023-03-03T17:08:19;7.10;86.50
3638;DHT22;1835;50.068;8.154;2023-03-03T17:11:01;7.30;88.20
3638;DHT22;1835;50.068;8.154;2023-03-03T17:13:57;7.10;87.80
3638;DHT22;1835;50.068;8.154;2023-03-03T17:16:54;6.90;90.50
3638;DHT22;1835;50.068;8.154;2023-03-03T17:19:37;6.90;91.10
3638;DHT22;1835;50.068;8.154;2023-03-03T17:22:18;6.90;91.30
3638;DHT22;1835;50.068;8.154;2023-03-03T17:24:58;7.00;91.70
3638;DHT22;1835;50.068;8.154;2023-03-03T17:27:42;6.90;91.70